createdAt,value
2024-02-29T00:03:53.623Z,74.78
2024-02-29T00:08:56.925Z,75.10
2024-02-29T00:14:00.134Z,74.31
2024-02-29T00:19:04.654Z,74.56
2024-02-29T00:24:08.756Z,73.45
2024-02-29T00:29:11.995Z,73.24
2024-02-29T00:34:15.725Z,73.30
2024-02-29T00:39:20.038Z,72.79
2024-02-29T00:44:24.351Z,72.48
2024-02-29T00:49:27.691Z,73.44
2024-02-29T00:54:31.015Z,71.88
2024-02-29T00:59:34.727Z,73.00
2024-02-29T01:04:39.321Z,73.19
2024-02-29T01:09:42.889Z,73.17
2024-02-29T01:14:46.038Z,73.61
2024-02-29T01:19:49.224Z,73.39
2024-02-29T01:24:53.426Z,74.01
2024-02-29T01:29:56.666Z,74.23
2024-02-29T01:35:00.706Z,74.04
2024-02-29T01:40:05.564Z,74.95
2024-02-29T01:45:09.069Z,74.77
2024-02-29T01:50:14.162Z,75.12
2024-02-29T01:55:17.869Z,74.80
2024-02-29T02:00:21.915Z,75.99
2024-02-29T02:05:28.019Z,76.33
2024-02-29T02:10:31.255Z,76.74
2024-02-29T02:15:35.309Z,76.78
2024-02-29T02:20:39.269Z,76.52
2024-02-29T02:25:43.639Z,76.09
2024-02-29T02:30:47.785Z,76.59
2024-02-29T02:35:52.326Z,76.74
2024-02-29T02:40:55.956Z,77.23
2024-02-29T02:45:59.607Z,76.61
2024-02-29T02:51:03.800Z,76.21
2024-02-29T02:56:07.555Z,75.00
2024-02-29T03:01:11.847Z,75.25
2024-02-29T03:06:15.697Z,75.12
2024-02-29T03:11:19.443Z,74.44
2024-02-29T03:16:25.085Z,74.46
2024-02-29T03:21:29.644Z,74.56
2024-02-29T03:26:33.685Z,74.60
2024-02-29T03:31:37.381Z,73.98
2024-02-29T03:36:40.909Z,74.16
2024-02-29T03:41:44.511Z,74.43
2024-02-29T03:46:48.713Z,73.94
2024-02-29T03:51:52.429Z,73.82
2024-02-29T03:56:56.346Z,74.67
2024-02-29T04:02:01.698Z,74.20
2024-02-29T04:07:06.163Z,74.31
2024-02-29T04:12:10.172Z,74.61
2024-02-29T04:17:13.824Z,74.28
2024-02-29T04:22:17.293Z,74.11
2024-02-29T04:27:20.691Z,75.06
2024-02-29T04:32:23.956Z,75.33
2024-02-29T04:37:27.160Z,75.08
2024-02-29T04:42:30.640Z,75.22
2024-02-29T04:47:36.070Z,75.85
2024-02-29T04:52:39.360Z,76.33
2024-02-29T04:57:42.732Z,78.07
2024-02-29T05:02:46.015Z,77.07
2024-02-29T05:07:49.330Z,77.61
2024-02-29T05:12:52.742Z,78.66
2024-02-29T05:17:55.930Z,78.87
2024-02-29T05:22:59.164Z,78.61
2024-02-29T05:28:03.332Z,77.85
2024-02-29T05:33:06.757Z,77.18
2024-02-29T05:38:10.015Z,77.42
2024-02-29T05:43:16.866Z,77.36
2024-02-29T05:48:20.166Z,77.10
2024-02-29T05:53:24.342Z,76.15
2024-02-29T05:58:33.090Z,76.01
2024-02-29T06:03:39.143Z,76.03
2024-02-29T06:08:42.568Z,75.92
2024-02-29T06:13:45.756Z,76.15
2024-02-29T06:18:49.555Z,75.97
2024-02-29T06:23:56.367Z,76.87
2024-02-29T06:28:59.605Z,77.67
2024-02-29T06:34:04.078Z,77.30
2024-02-29T06:39:09.512Z,77.26
2024-02-29T06:44:13.393Z,76.83
2024-02-29T06:49:17.255Z,77.33
2024-02-29T06:54:20.536Z,76.77
2024-02-29T06:59:23.853Z,77.35
2024-02-29T07:04:27.243Z,77.77
2024-02-29T07:09:30.600Z,78.00
2024-02-29T07:14:36.217Z,78.43
2024-02-29T07:19:40.854Z,77.10
2024-02-29T07:24:44.014Z,78.01
2024-02-29T07:29:47.385Z,77.94
2024-02-29T07:34:50.517Z,78.61
2024-02-29T07:39:53.724Z,78.56
2024-02-29T07:44:57.759Z,77.61
2024-02-29T07:50:00.960Z,77.38
2024-02-29T07:55:07.533Z,76.86
2024-02-29T08:00:13.140Z,76.17
2024-02-29T08:05:16.514Z,76.89
2024-02-29T08:10:20.339Z,76.03
2024-02-29T08:15:23.852Z,75.74
2024-02-29T08:20:27.456Z,75.57
2024-02-29T08:25:32.323Z,76.02
2024-02-29T08:30:35.547Z,75.22
2024-02-29T08:35:40.272Z,74.67
2024-02-29T08:40:43.564Z,74.40
2024-02-29T08:45:46.825Z,74.12
2024-02-29T08:50:50.303Z,73.55
2024-02-29T08:55:53.954Z,72.37
2024-02-29T09:00:57.401Z,72.21
2024-02-29T09:06:01.094Z,71.47
2024-02-29T09:11:05.077Z,71.02
2024-02-29T09:16:09.480Z,70.34
2024-02-29T09:21:12.923Z,70.73
2024-02-29T09:26:18.023Z,70.51
2024-02-29T09:31:21.811Z,70.06
2024-02-29T09:36:26.129Z,69.79
2024-02-29T09:41:41.597Z,69.20
2024-02-29T09:46:52.692Z,68.04
2024-02-29T09:51:56.439Z,67.54
2024-02-29T09:57:00.247Z,67.04
2024-02-29T10:02:05.393Z,67.05
2024-02-29T10:07:08.974Z,67.81
2024-02-29T10:12:17.937Z,67.92
2024-02-29T10:17:21.230Z,66.77
2024-02-29T10:22:24.423Z,67.43
2024-02-29T10:27:28.514Z,68.15
2024-02-29T10:32:33.997Z,66.67
2024-02-29T10:37:37.372Z,65.97
2024-02-29T10:42:42.291Z,65.91
2024-02-29T10:47:54.708Z,66.05
2024-02-29T10:53:09.088Z,66.09
2024-02-29T10:58:23.426Z,66.49
2024-02-29T11:03:27.188Z,66.09
2024-02-29T11:08:38.068Z,65.05
2024-02-29T11:13:42.477Z,64.24
2024-02-29T11:18:45.997Z,62.31
2024-02-29T11:23:50.846Z,62.75
2024-02-29T11:28:54.164Z,63.19
2024-02-29T11:33:57.593Z,62.68
2024-02-29T11:39:01.061Z,61.70
2024-02-29T11:44:04.934Z,61.35
2024-02-29T11:49:08.290Z,61.43
2024-02-29T11:54:14.458Z,61.24
2024-02-29T11:59:19.168Z,61.23
2024-02-29T12:04:22.925Z,61.24
2024-02-29T12:09:26.730Z,61.36
2024-02-29T12:14:30.529Z,60.66
2024-02-29T12:19:33.918Z,60.70
2024-02-29T12:24:37.242Z,61.01
2024-02-29T12:29:43.968Z,61.09
2024-02-29T12:34:47.682Z,60.59
2024-02-29T12:39:56.157Z,59.41
2024-02-29T12:45:00.183Z,59.60
2024-02-29T12:50:09.424Z,58.79
2024-02-29T12:55:13.754Z,58.87
2024-02-29T13:00:25.631Z,58.49
2024-02-29T13:05:28.972Z,59.04
2024-02-29T13:10:32.162Z,59.60
2024-02-29T13:15:35.734Z,59.19
2024-02-29T13:20:39.123Z,58.89
2024-02-29T13:25:42.555Z,59.17
2024-02-29T13:30:45.966Z,58.75
2024-02-29T13:35:49.192Z,59.14
2024-02-29T13:40:52.342Z,58.62
2024-02-29T13:45:55.689Z,59.18
2024-02-29T13:50:59.117Z,59.99
2024-02-29T13:56:02.600Z,60.10
2024-02-29T14:01:08.418Z,60.01
2024-02-29T14:06:15.821Z,60.01
2024-02-29T14:11:19.188Z,60.03
2024-02-29T14:16:22.729Z,59.90
2024-02-29T14:21:26.089Z,60.24
2024-02-29T14:26:29.475Z,59.17
2024-02-29T14:31:32.898Z,58.58
2024-02-29T14:36:37.894Z,59.19
2024-02-29T14:41:45.094Z,59.93
2024-02-29T14:46:49.033Z,59.52
2024-02-29T14:51:56.410Z,60.40
2024-02-29T14:56:59.861Z,60.28
2024-02-29T15:02:03.471Z,60.25
2024-02-29T15:07:07.212Z,60.00
2024-02-29T15:12:10.579Z,59.27
2024-02-29T15:17:14.165Z,60.41
2024-02-29T15:22:17.747Z,64.61
2024-02-29T15:27:21.415Z,66.19
2024-02-29T15:32:24.997Z,67.03
2024-02-29T15:37:29.280Z,67.54
2024-02-29T15:42:33.667Z,67.55
2024-02-29T15:47:36.983Z,67.46
2024-02-29T15:52:40.465Z,67.49
2024-02-29T15:57:43.767Z,66.90
2024-02-29T16:02:46.895Z,67.06
2024-02-29T16:07:51.957Z,67.43
2024-02-29T16:13:00.273Z,68.18
2024-02-29T16:18:03.906Z,68.39
2024-02-29T16:23:07.246Z,69.62
2024-02-29T16:28:10.678Z,69.03
2024-02-29T16:33:14.037Z,70.52
2024-02-29T16:38:17.410Z,71.12
2024-02-29T16:43:22.358Z,71.37
2024-02-29T16:48:26.288Z,70.57
2024-02-29T16:53:29.551Z,71.18
2024-02-29T16:58:33.711Z,71.73
2024-02-29T17:03:37.002Z,72.26
2024-02-29T17:08:40.309Z,72.55
2024-02-29T17:13:44.691Z,73.15
2024-02-29T17:18:48.210Z,72.71
2024-02-29T17:23:54.968Z,72.86
2024-02-29T17:28:58.363Z,73.16
2024-02-29T17:34:04.875Z,73.79
2024-02-29T17:39:08.607Z,73.50
2024-02-29T17:44:13.628Z,74.33
2024-02-29T17:49:17.471Z,74.24
2024-02-29T17:54:21.196Z,74.73
2024-02-29T17:59:24.464Z,73.64
2024-02-29T18:04:29.335Z,73.73
2024-02-29T18:09:33.620Z,74.07
2024-02-29T18:14:36.834Z,73.69
2024-02-29T18:19:40.146Z,73.67
2024-02-29T18:24:43.461Z,74.41
2024-02-29T18:29:47.887Z,74.95
2024-02-29T18:34:51.086Z,75.34
2024-02-29T18:39:55.039Z,75.52
2024-02-29T18:44:59.605Z,76.08
2024-02-29T18:50:04.347Z,76.48
2024-02-29T18:55:11.010Z,76.12
2024-02-29T19:00:16.544Z,75.75
2024-02-29T19:05:19.914Z,76.37
2024-02-29T19:10:24.434Z,76.85
2024-02-29T19:15:27.711Z,76.22
2024-02-29T19:20:30.952Z,75.93
2024-02-29T19:25:34.276Z,75.23
2024-02-29T19:30:38.071Z,75.26
2024-02-29T19:35:41.260Z,75.68
2024-02-29T19:40:44.540Z,76.72
2024-02-29T19:45:47.857Z,77.05
2024-02-29T19:50:52.453Z,76.05
2024-02-29T19:55:56.538Z,76.46
2024-02-29T20:01:04.631Z,76.85
2024-02-29T20:06:08.291Z,77.14
2024-02-29T20:11:11.822Z,76.42
2024-02-29T20:16:15.058Z,76.42
2024-02-29T20:21:18.267Z,77.39
2024-02-29T20:26:21.485Z,77.66
2024-02-29T20:31:25.514Z,78.20
2024-02-29T20:36:30.332Z,77.65
2024-02-29T20:41:34.081Z,78.27
2024-02-29T20:46:37.672Z,79.09
2024-02-29T20:51:41.195Z,79.13
2024-02-29T20:56:44.729Z,78.08
2024-02-29T21:01:48.116Z,77.67
2024-02-29T21:06:51.835Z,77.24
2024-02-29T21:11:55.131Z,77.65
2024-02-29T21:16:58.351Z,77.93
2024-02-29T21:22:01.657Z,77.72
2024-02-29T21:27:07.320Z,77.87
2024-02-29T21:32:10.597Z,77.64
2024-02-29T21:37:13.863Z,77.59
2024-02-29T21:42:17.200Z,78.05
2024-02-29T21:47:20.471Z,78.37
2024-02-29T21:52:24.355Z,78.38
2024-02-29T21:57:27.595Z,77.94
2024-02-29T22:02:30.985Z,78.48
2024-02-29T22:07:34.382Z,79.37
2024-02-29T22:12:39.156Z,79.83
2024-02-29T22:17:42.399Z,79.91
2024-02-29T22:22:45.610Z,79.58
2024-02-29T22:27:49.011Z,80.21
2024-02-29T22:32:52.579Z,80.49
2024-02-29T22:37:55.788Z,80.13
2024-02-29T22:42:59.037Z,81.30
2024-02-29T22:48:02.315Z,81.30
2024-02-29T22:53:05.562Z,81.36
2024-02-29T22:58:08.842Z,80.81
2024-02-29T23:03:12.300Z,80.75
2024-02-29T23:08:15.887Z,80.83
2024-02-29T23:13:19.102Z,81.17
2024-02-29T23:18:22.623Z,80.48
2024-02-29T23:23:26.138Z,80.75
2024-02-29T23:28:29.558Z,81.71
2024-02-29T23:33:33.008Z,81.09
2024-02-29T23:38:36.226Z,80.52
2024-02-29T23:43:39.810Z,81.07
2024-02-29T23:48:43.100Z,81.20
2024-02-29T23:53:46.217Z,82.27
2024-02-29T23:58:49.489Z,82.41
